首页
METAR-TAF:

METAR-TAF

机场 :

伦敦斯坦斯特德机场

坦斯特德機場, 英格兰

纬度: 51-53N, 经度: 000-14E, 海拔: 106米

当前天气观测

该预报发布于14分钟前的07:50 UTC
风速12节,风向
温度 4°C
湿度 93%
气压 1018 hPa
能见度10公里或以上

METAR: EGSS 100750Z AUTO 17012KT 9999 NCD 04/03 Q1018

时间: 08:04 (08:04 UTC)

预报

该预报发布于1小时和27分钟前的06:37 UTC
预报有效从10日的 06点(UTC)到 11日的 12点(UTC)
风速4节,风向西南
能见度10公里或以上
1500米以下无云,无积雨云
成为
从 10日的 06点(UTC)到 10日的 09点(UTC)
风速14节,风向
散云层高于800英尺
多云层高于2000英尺
成为
从 10日的 09点(UTC)到 10日的 12点(UTC)
风速20节,风向,有时为30节阵风
几率 30% :
短暂存在
从 10日的 09点(UTC)到 10日的 12点(UTC)
能見度: 6000
短暂存在
从 10日的 12点(UTC)到 10日的 21点(UTC)
风速25节,风向,有时为40节阵风
能見度: 6000
多云层高于800英尺
几率 30% :
短暂存在
从 10日的 16点(UTC)到 10日的 21点(UTC)
能見度: 3000
多云层高于400英尺
大雨
成为
从 10日的 21点(UTC)到 10日的 23点(UTC)
风速12节,风向西
短暂存在
从 10日的 21点(UTC)到 10日的 23点(UTC)
能見度: 4000
多云层高于800英尺
成为
从 10日的 23点(UTC)到 11日的 01点(UTC)
风速6节,风向南转西南
能见度10公里或以上
1500米以下无云,无积雨云
几率 30%
从 11日的 01点(UTC)到 11日的 08点(UTC)
能見度: 8000

TAF: EGSS 100637Z 1006/1112 23004KT CAVOK BECMG 1006/1009 18014KT SCT008 BKN020 BECMG 1009/1012 19020G30KT PROB30 TEMPO 1009/1012 6000 RA TEMPO 1012/1021 19025G40KT 6000 RA BKN008 PROB30 TEMPO 1016/1021 3000 +RA BKN004 BECMG 1021/1023 27012KT TEMPO 1021/1023 4000 RA BKN008 BECMG 1023/1101 21006KT CAVOK PROB30 1101/1108 8000

超过4000个机场的气象观测和天气预报(METAR&TAF报告)。

可查询的气象台以黄色和红色小点在地图上表示。

将鼠标移到小点上方,可查看气象台名称。

然后点击查看天气观测和预报。

如需切换地图:点击带黑十字的绿色按钮放大地图;点击带横线的绿色按钮缩小地图;或者点击绿色箭头查看邻近地区的地图。


METAR-TAF: